sensor_id;sensor_type;location;lat;lon;timestamp;P1;durP1;ratioP1;P2;durP2;ratioP2
70549;SDS011;58101;48.658;2.328;2024-03-22T00:00:59;11.23;;;4.72;;
70549;SDS011;58101;48.658;2.328;2024-03-22T00:03:24;11.43;;;4.45;;
70549;SDS011;58101;48.658;2.328;2024-03-22T00:05:50;12.20;;;4.32;;
70549;SDS011;58101;48.658;2.328;2024-03-22T00:08:16;11.90;;;4.97;;
70549;SDS011;58101;48.658;2.328;2024-03-22T00:10:41;15.50;;;5.00;;
70549;SDS011;58101;48.658;2.328;2024-03-22T00:13:07;13.25;;;4.93;;
70549;SDS011;58101;48.658;2.328;2024-03-22T00:15:33;11.00;;;4.82;;
70549;SDS011;58101;48.658;2.328;2024-03-22T00:17:58;15.82;;;4.60;;
70549;SDS011;58101;48.658;2.328;2024-03-22T00:20:24;10.88;;;4.72;;
70549;SDS011;58101;48.658;2.328;2024-03-22T00:22:49;11.27;;;4.80;;
70549;SDS011;58101;48.658;2.328;2024-03-22T00:25:15;16.13;;;5.20;;
70549;SDS011;58101;48.658;2.328;2024-03-22T00:27:40;13.77;;;5.07;;
70549;SDS011;58101;48.658;2.328;2024-03-22T00:30:06;13.27;;;5.00;;
70549;SDS011;58101;48.658;2.328;2024-03-22T00:32:32;14.32;;;4.93;;
70549;SDS011;58101;48.658;2.328;2024-03-22T00:34:58;13.00;;;4.70;;
70549;SDS011;58101;48.658;2.328;2024-03-22T00:37:23;12.15;;;4.85;;
70549;SDS011;58101;48.658;2.328;2024-03-22T00:39:49;11.55;;;4.80;;
70549;SDS011;58101;48.658;2.328;2024-03-22T00:42:14;12.88;;;4.47;;
70549;SDS011;58101;48.658;2.328;2024-03-22T00:44:40;11.85;;;4.97;;
70549;SDS011;58101;48.658;2.328;2024-03-22T00:47:06;13.80;;;5.43;;
70549;SDS011;58101;48.658;2.328;2024-03-22T00:49:31;14.05;;;4.95;;
70549;SDS011;58101;48.658;2.328;2024-03-22T00:51:57;10.68;;;4.80;;
70549;SDS011;58101;48.658;2.328;2024-03-22T00:54:23;11.02;;;4.72;;
70549;SDS011;58101;48.658;2.328;2024-03-22T00:56:48;13.68;;;4.80;;
70549;SDS011;58101;48.658;2.328;2024-03-22T00:59:14;13.10;;;4.78;;
70549;SDS011;58101;48.658;2.328;2024-03-22T01:01:40;12.93;;;4.90;;
70549;SDS011;58101;48.658;2.328;2024-03-22T01:04:05;13.45;;;5.00;;
70549;SDS011;58101;48.658;2.328;2024-03-22T01:06:32;14.02;;;5.05;;
70549;SDS011;58101;48.658;2.328;2024-03-22T01:08:58;19.85;;;5.47;;
70549;SDS011;58101;48.658;2.328;2024-03-22T01:11:24;11.02;;;4.70;;
70549;SDS011;58101;48.658;2.328;2024-03-22T01:13:49;12.93;;;5.15;;
70549;SDS011;58101;48.658;2.328;2024-03-22T01:16:15;12.35;;;5.20;;
70549;SDS011;58101;48.658;2.328;2024-03-22T01:18:41;13.00;;;5.05;;
70549;SDS011;58101;48.658;2.328;2024-03-22T01:21:07;13.32;;;5.07;;
70549;SDS011;58101;48.658;2.328;2024-03-22T01:23:32;16.30;;;5.10;;
70549;SDS011;58101;48.658;2.328;2024-03-22T01:25:58;12.35;;;5.30;;
70549;SDS011;58101;48.658;2.328;2024-03-22T01:28:24;13.35;;;5.57;;
70549;SDS011;58101;48.658;2.328;2024-03-22T01:30:49;12.50;;;5.70;;
70549;SDS011;58101;48.658;2.328;2024-03-22T01:33:15;12.85;;;5.13;;
70549;SDS011;58101;48.658;2.328;2024-03-22T01:35:40;11.13;;;4.95;;
70549;SDS011;58101;48.658;2.328;2024-03-22T01:38:06;15.73;;;5.45;;
70549;SDS011;58101;48.658;2.328;2024-03-22T01:40:31;11.05;;;5.00;;
70549;SDS011;58101;48.658;2.328;2024-03-22T01:42:57;14.98;;;5.28;;
70549;SDS011;58101;48.658;2.328;2024-03-22T01:45:24;11.80;;;4.88;;
70549;SDS011;58101;48.658;2.328;2024-03-22T01:47:52;11.52;;;5.28;;
70549;SDS011;58101;48.658;2.328;2024-03-22T01:50:20;11.60;;;5.03;;
70549;SDS011;58101;48.658;2.328;2024-03-22T01:52:46;11.35;;;5.05;;
70549;SDS011;58101;48.658;2.328;2024-03-22T01:55:12;12.50;;;5.57;;
70549;SDS011;58101;48.658;2.328;2024-03-22T01:57:38;11.77;;;5.40;;
70549;SDS011;58101;48.658;2.328;2024-03-22T02:00:03;13.05;;;5.35;;
70549;SDS011;58101;48.658;2.328;2024-03-22T02:02:29;12.07;;;5.30;;
70549;SDS011;58101;48.658;2.328;2024-03-22T02:04:56;13.23;;;5.80;;
70549;SDS011;58101;48.658;2.328;2024-03-22T02:07:22;15.73;;;5.70;;
70549;SDS011;58101;48.658;2.328;2024-03-22T02:09:47;12.15;;;5.43;;
70549;SDS011;58101;48.658;2.328;2024-03-22T02:12:13;13.05;;;5.70;;
70549;SDS011;58101;48.658;2.328;2024-03-22T02:14:40;13.15;;;5.30;;
70549;SDS011;58101;48.658;2.328;2024-03-22T02:17:06;11.88;;;5.60;;
70549;SDS011;58101;48.658;2.328;2024-03-22T02:19:32;12.38;;;5.30;;
70549;SDS011;58101;48.658;2.328;2024-03-22T02:21:57;13.32;;;5.50;;
70549;SDS011;58101;48.658;2.328;2024-03-22T02:24:23;14.20;;;5.13;;
70549;SDS011;58101;48.658;2.328;2024-03-22T02:26:48;13.13;;;5.32;;
70549;SDS011;58101;48.658;2.328;2024-03-22T02:29:14;15.82;;;5.38;;
70549;SDS011;58101;48.658;2.328;2024-03-22T02:31:40;13.27;;;5.45;;
70549;SDS011;58101;48.658;2.328;2024-03-22T02:34:05;14.13;;;5.63;;
70549;SDS011;58101;48.658;2.328;2024-03-22T02:36:31;12.75;;;5.80;;
70549;SDS011;58101;48.658;2.328;2024-03-22T02:38:56;11.98;;;5.07;;
70549;SDS011;58101;48.658;2.328;2024-03-22T02:41:22;16.98;;;5.97;;
70549;SDS011;58101;48.658;2.328;2024-03-22T02:43:48;17.48;;;5.95;;
70549;SDS011;58101;48.658;2.328;2024-03-22T02:46:13;13.15;;;5.18;;
70549;SDS011;58101;48.658;2.328;2024-03-22T02:48:39;13.07;;;5.60;;
70549;SDS011;58101;48.658;2.328;2024-03-22T02:51:04;15.30;;;6.45;;
70549;SDS011;58101;48.658;2.328;2024-03-22T02:53:30;11.38;;;5.32;;
70549;SDS011;58101;48.658;2.328;2024-03-22T02:55:56;15.10;;;5.88;;
70549;SDS011;58101;48.658;2.328;2024-03-22T02:58:25;15.20;;;5.25;;
70549;SDS011;58101;48.658;2.328;2024-03-22T03:00:51;12.43;;;5.38;;
70549;SDS011;58101;48.658;2.328;2024-03-22T03:03:16;13.52;;;5.90;;
70549;SDS011;58101;48.658;2.328;2024-03-22T03:05:42;15.90;;;5.72;;
70549;SDS011;58101;48.658;2.328;2024-03-22T03:08:09;14.13;;;5.93;;
70549;SDS011;58101;48.658;2.328;2024-03-22T03:10:35;14.70;;;5.78;;
70549;SDS011;58101;48.658;2.328;2024-03-22T03:13:00;13.88;;;5.90;;
70549;SDS011;58101;48.658;2.328;2024-03-22T03:15:26;13.05;;;5.63;;
70549;SDS011;58101;48.658;2.328;2024-03-22T03:17:52;15.32;;;6.13;;
70549;SDS011;58101;48.658;2.328;2024-03-22T03:20:17;13.75;;;5.85;;
70549;SDS011;58101;48.658;2.328;2024-03-22T03:22:43;14.70;;;5.93;;
70549;SDS011;58101;48.658;2.328;2024-03-22T03:25:09;13.00;;;5.60;;
70549;SDS011;58101;48.658;2.328;2024-03-22T03:27:34;16.25;;;6.82;;
70549;SDS011;58101;48.658;2.328;2024-03-22T03:30:00;17.48;;;6.65;;
70549;SDS011;58101;48.658;2.328;2024-03-22T03:32:26;15.63;;;6.70;;
70549;SDS011;58101;48.658;2.328;2024-03-22T03:34:53;13.65;;;5.65;;
70549;SDS011;58101;48.658;2.328;2024-03-22T03:37:18;13.60;;;6.10;;
70549;SDS011;58101;48.658;2.328;2024-03-22T03:39:44;13.80;;;5.78;;
70549;SDS011;58101;48.658;2.328;2024-03-22T03:42:10;13.68;;;5.88;;
70549;SDS011;58101;48.658;2.328;2024-03-22T03:44:36;15.02;;;6.10;;
70549;SDS011;58101;48.658;2.328;2024-03-22T03:47:01;13.48;;;5.90;;
70549;SDS011;58101;48.658;2.328;2024-03-22T03:49:27;14.85;;;6.30;;
70549;SDS011;58101;48.658;2.328;2024-03-22T03:51:53;15.52;;;6.20;;
70549;SDS011;58101;48.658;2.328;2024-03-22T03:54:18;14.18;;;6.05;;
70549;SDS011;58101;48.658;2.328;2024-03-22T03:56:44;14.82;;;6.32;;
70549;SDS011;58101;48.658;2.328;2024-03-22T03:59:09;16.42;;;6.15;;
70549;SDS011;58101;48.658;2.328;2024-03-22T04:01:35;14.30;;;6.20;;
70549;SDS011;58101;48.658;2.328;2024-03-22T04:04:02;14.52;;;6.10;;
70549;SDS011;58101;48.658;2.328;2024-03-22T04:06:27;15.32;;;6.20;;
70549;SDS011;58101;48.658;2.328;2024-03-22T04:08:53;14.02;;;5.90;;
70549;SDS011;58101;48.658;2.328;2024-03-22T04:11:19;15.73;;;6.07;;
70549;SDS011;58101;48.658;2.328;2024-03-22T04:13:44;16.42;;;6.30;;
70549;SDS011;58101;48.658;2.328;2024-03-22T04:16:10;13.88;;;5.97;;
70549;SDS011;58101;48.658;2.328;2024-03-22T04:18:36;16.25;;;6.30;;
70549;SDS011;58101;48.658;2.328;2024-03-22T04:21:01;15.50;;;6.53;;
70549;SDS011;58101;48.658;2.328;2024-03-22T04:23:27;17.50;;;6.85;;
70549;SDS011;58101;48.658;2.328;2024-03-22T04:25:53;15.32;;;6.95;;
70549;SDS011;58101;48.658;2.328;2024-03-22T04:28:20;16.42;;;6.93;;
70549;SDS011;58101;48.658;2.328;2024-03-22T04:31:01;15.55;;;6.10;;
70549;SDS011;58101;48.658;2.328;2024-03-22T04:33:31;18.55;;;7.00;;
70549;SDS011;58101;48.658;2.328;2024-03-22T04:35:58;16.35;;;6.75;;
70549;SDS011;58101;48.658;2.328;2024-03-22T04:38:24;15.48;;;7.07;;
70549;SDS011;58101;48.658;2.328;2024-03-22T04:40:50;16.50;;;6.30;;
70549;SDS011;58101;48.658;2.328;2024-03-22T04:43:17;16.60;;;6.57;;
70549;SDS011;58101;48.658;2.328;2024-03-22T04:45:43;12.35;;;5.88;;
70549;SDS011;58101;48.658;2.328;2024-03-22T04:48:09;16.50;;;6.53;;
70549;SDS011;58101;48.658;2.328;2024-03-22T04:50:35;17.65;;;5.95;;
70549;SDS011;58101;48.658;2.328;2024-03-22T04:53:01;16.38;;;7.00;;
70549;SDS011;58101;48.658;2.328;2024-03-22T04:55:27;14.30;;;6.43;;
70549;SDS011;58101;48.658;2.328;2024-03-22T04:57:52;15.00;;;6.90;;
70549;SDS011;58101;48.658;2.328;2024-03-22T05:00:18;15.90;;;6.70;;
70549;SDS011;58101;48.658;2.328;2024-03-22T05:02:44;18.95;;;6.70;;
70549;SDS011;58101;48.658;2.328;2024-03-22T05:05:11;16.55;;;6.43;;
70549;SDS011;58101;48.658;2.328;2024-03-22T05:07:37;16.08;;;7.00;;
70549;SDS011;58101;48.658;2.328;2024-03-22T05:10:03;14.90;;;5.97;;
70549;SDS011;58101;48.658;2.328;2024-03-22T05:12:29;15.85;;;6.63;;
70549;SDS011;58101;48.658;2.328;2024-03-22T05:14:54;14.60;;;6.13;;
70549;SDS011;58101;48.658;2.328;2024-03-22T05:17:20;14.35;;;6.00;;
70549;SDS011;58101;48.658;2.328;2024-03-22T05:19:46;17.58;;;6.28;;
70549;SDS011;58101;48.658;2.328;2024-03-22T05:22:11;17.17;;;6.03;;
70549;SDS011;58101;48.658;2.328;2024-03-22T05:24:37;19.30;;;6.68;;
70549;SDS011;58101;48.658;2.328;2024-03-22T05:27:03;12.75;;;5.78;;
70549;SDS011;58101;48.658;2.328;2024-03-22T05:29:29;14.65;;;6.30;;
70549;SDS011;58101;48.658;2.328;2024-03-22T05:31:54;16.30;;;6.75;;
70549;SDS011;58101;48.658;2.328;2024-03-22T05:34:20;15.23;;;6.30;;
70549;SDS011;58101;48.658;2.328;2024-03-22T05:36:46;18.13;;;7.03;;
70549;SDS011;58101;48.658;2.328;2024-03-22T05:39:11;13.52;;;6.20;;
70549;SDS011;58101;48.658;2.328;2024-03-22T05:41:37;15.85;;;6.18;;
70549;SDS011;58101;48.658;2.328;2024-03-22T05:44:03;16.67;;;6.18;;
70549;SDS011;58101;48.658;2.328;2024-03-22T05:46:29;18.38;;;6.63;;
70549;SDS011;58101;48.658;2.328;2024-03-22T05:48:56;16.45;;;6.38;;
70549;SDS011;58101;48.658;2.328;2024-03-22T05:51:22;16.08;;;6.07;;
70549;SDS011;58101;48.658;2.328;2024-03-22T05:53:48;16.35;;;6.65;;
70549;SDS011;58101;48.658;2.328;2024-03-22T05:56:14;15.75;;;6.68;;
70549;SDS011;58101;48.658;2.328;2024-03-22T05:58:39;16.65;;;6.43;;
70549;SDS011;58101;48.658;2.328;2024-03-22T06:01:05;14.93;;;6.47;;
70549;SDS011;58101;48.658;2.328;2024-03-22T06:03:31;15.32;;;6.65;;
70549;SDS011;58101;48.658;2.328;2024-03-22T06:05:58;15.20;;;6.82;;
70549;SDS011;58101;48.658;2.328;2024-03-22T06:08:25;15.02;;;6.53;;
70549;SDS011;58101;48.658;2.328;2024-03-22T06:10:54;13.98;;;6.25;;
70549;SDS011;58101;48.658;2.328;2024-03-22T06:13:23;15.70;;;6.22;;
70549;SDS011;58101;48.658;2.328;2024-03-22T06:15:49;14.55;;;6.15;;
70549;SDS011;58101;48.658;2.328;2024-03-22T06:18:15;18.05;;;6.93;;
70549;SDS011;58101;48.658;2.328;2024-03-22T06:20:41;17.17;;;6.72;;
70549;SDS011;58101;48.658;2.328;2024-03-22T06:23:07;15.60;;;6.10;;
70549;SDS011;58101;48.658;2.328;2024-03-22T06:25:33;15.73;;;6.70;;
70549;SDS011;58101;48.658;2.328;2024-03-22T06:27:59;16.65;;;6.72;;
70549;SDS011;58101;48.658;2.328;2024-03-22T06:30:24;16.67;;;6.70;;
70549;SDS011;58101;48.658;2.328;2024-03-22T06:32:50;18.35;;;6.65;;
70549;SDS011;58101;48.658;2.328;2024-03-22T06:35:16;17.02;;;7.47;;
70549;SDS011;58101;48.658;2.328;2024-03-22T06:37:41;17.80;;;7.00;;
70549;SDS011;58101;48.658;2.328;2024-03-22T06:40:07;17.83;;;7.05;;
70549;SDS011;58101;48.658;2.328;2024-03-22T06:42:33;16.67;;;6.88;;
70549;SDS011;58101;48.658;2.328;2024-03-22T06:44:58;18.58;;;7.65;;
70549;SDS011;58101;48.658;2.328;2024-03-22T06:47:24;17.13;;;6.97;;
70549;SDS011;58101;48.658;2.328;2024-03-22T06:49:50;17.80;;;7.90;;
70549;SDS011;58101;48.658;2.328;2024-03-22T06:52:15;18.42;;;8.35;;
70549;SDS011;58101;48.658;2.328;2024-03-22T06:54:43;18.42;;;7.68;;
70549;SDS011;58101;48.658;2.328;2024-03-22T06:57:09;18.35;;;8.20;;
70549;SDS011;58101;48.658;2.328;2024-03-22T06:59:34;21.95;;;8.85;;
70549;SDS011;58101;48.658;2.328;2024-03-22T07:02:00;18.90;;;8.23;;
70549;SDS011;58101;48.658;2.328;2024-03-22T07:04:25;20.60;;;8.20;;
70549;SDS011;58101;48.658;2.328;2024-03-22T07:06:51;20.27;;;8.57;;
70549;SDS011;58101;48.658;2.328;2024-03-22T07:09:16;18.52;;;8.20;;
70549;SDS011;58101;48.658;2.328;2024-03-22T07:11:42;25.13;;;12.20;;
70549;SDS011;58101;48.658;2.328;2024-03-22T07:14:08;18.90;;;8.35;;
70549;SDS011;58101;48.658;2.328;2024-03-22T07:16:34;23.33;;;8.88;;
70549;SDS011;58101;48.658;2.328;2024-03-22T07:19:02;22.17;;;9.90;;
70549;SDS011;58101;48.658;2.328;2024-03-22T07:21:28;23.20;;;9.43;;
70549;SDS011;58101;48.658;2.328;2024-03-22T07:23:54;22.80;;;8.90;;
70549;SDS011;58101;48.658;2.328;2024-03-22T07:26:20;22.92;;;9.32;;
70549;SDS011;58101;48.658;2.328;2024-03-22T07:28:46;20.27;;;8.88;;
70549;SDS011;58101;48.658;2.328;2024-03-22T07:31:11;18.05;;;8.27;;
70549;SDS011;58101;48.658;2.328;2024-03-22T07:33:37;16.98;;;7.45;;
70549;SDS011;58101;48.658;2.328;2024-03-22T07:36:04;21.75;;;8.65;;
70549;SDS011;58101;48.658;2.328;2024-03-22T07:38:30;21.20;;;8.48;;
70549;SDS011;58101;48.658;2.328;2024-03-22T07:40:56;23.52;;;9.43;;
70549;SDS011;58101;48.658;2.328;2024-03-22T07:43:21;21.23;;;9.48;;
70549;SDS011;58101;48.658;2.328;2024-03-22T07:45:47;23.02;;;9.48;;
70549;SDS011;58101;48.658;2.328;2024-03-22T07:48:13;24.00;;;9.88;;
70549;SDS011;58101;48.658;2.328;2024-03-22T07:50:38;23.33;;;9.65;;
70549;SDS011;58101;48.658;2.328;2024-03-22T07:53:04;17.85;;;8.63;;
70549;SDS011;58101;48.658;2.328;2024-03-22T07:55:30;18.80;;;8.60;;
70549;SDS011;58101;48.658;2.328;2024-03-22T07:57:55;20.45;;;8.65;;
70549;SDS011;58101;48.658;2.328;2024-03-22T08:00:22;21.70;;;9.38;;
70549;SDS011;58101;48.658;2.328;2024-03-22T08:02:50;24.15;;;9.30;;
70549;SDS011;58101;48.658;2.328;2024-03-22T08:05:18;18.90;;;8.57;;
70549;SDS011;58101;48.658;2.328;2024-03-22T08:07:44;18.70;;;8.60;;
70549;SDS011;58101;48.658;2.328;2024-03-22T08:10:10;20.33;;;8.82;;
70549;SDS011;58101;48.658;2.328;2024-03-22T08:12:36;20.20;;;9.15;;
70549;SDS011;58101;48.658;2.328;2024-03-22T08:15:02;17.60;;;8.32;;
70549;SDS011;58101;48.658;2.328;2024-03-22T08:17:27;20.38;;;8.43;;
70549;SDS011;58101;48.658;2.328;2024-03-22T08:19:53;19.63;;;7.85;;
70549;SDS011;58101;48.658;2.328;2024-03-22T08:22:19;19.95;;;8.10;;
70549;SDS011;58101;48.658;2.328;2024-03-22T08:24:45;18.90;;;7.90;;
70549;SDS011;58101;48.658;2.328;2024-03-22T08:27:10;16.77;;;7.70;;
70549;SDS011;58101;48.658;2.328;2024-03-22T08:29:36;15.57;;;7.05;;
70549;SDS011;58101;48.658;2.328;2024-03-22T08:32:02;18.38;;;7.78;;
70549;SDS011;58101;48.658;2.328;2024-03-22T08:34:29;17.77;;;6.63;;
70549;SDS011;58101;48.658;2.328;2024-03-22T08:39:21;14.27;;;6.60;;
70549;SDS011;58101;48.658;2.328;2024-03-22T08:41:46;17.17;;;6.90;;
70549;SDS011;58101;48.658;2.328;2024-03-22T08:44:12;16.27;;;7.78;;
70549;SDS011;58101;48.658;2.328;2024-03-22T08:46:38;14.85;;;7.72;;
70549;SDS011;58101;48.658;2.328;2024-03-22T08:49:04;20.23;;;7.97;;
70549;SDS011;58101;48.658;2.328;2024-03-22T08:51:30;19.13;;;8.10;;
70549;SDS011;58101;48.658;2.328;2024-03-22T08:53:55;15.80;;;8.15;;
70549;SDS011;58101;48.658;2.328;2024-03-22T08:56:21;16.23;;;8.02;;
70549;SDS011;58101;48.658;2.328;2024-03-22T08:58:46;16.08;;;8.35;;
70549;SDS011;58101;48.658;2.328;2024-03-22T09:01:12;15.90;;;7.82;;
70549;SDS011;58101;48.658;2.328;2024-03-22T09:03:38;13.90;;;7.78;;
70549;SDS011;58101;48.658;2.328;2024-03-22T09:06:04;14.65;;;8.18;;
70549;SDS011;58101;48.658;2.328;2024-03-22T09:08:30;13.95;;;8.15;;
70549;SDS011;58101;48.658;2.328;2024-03-22T09:10:56;14.65;;;7.95;;
70549;SDS011;58101;48.658;2.328;2024-03-22T09:13:21;15.55;;;7.75;;
70549;SDS011;58101;48.658;2.328;2024-03-22T09:15:47;17.42;;;7.53;;
70549;SDS011;58101;48.658;2.328;2024-03-22T09:18:14;14.65;;;7.63;;
70549;SDS011;58101;48.658;2.328;2024-03-22T09:20:39;15.75;;;7.20;;
70549;SDS011;58101;48.658;2.328;2024-03-22T09:23:05;15.18;;;7.45;;
70549;SDS011;58101;48.658;2.328;2024-03-22T09:25:30;15.63;;;7.00;;
70549;SDS011;58101;48.658;2.328;2024-03-22T09:27:56;15.43;;;6.70;;
70549;SDS011;58101;48.658;2.328;2024-03-22T09:30:22;19.23;;;6.70;;
70549;SDS011;58101;48.658;2.328;2024-03-22T09:32:47;15.95;;;6.20;;
70549;SDS011;58101;48.658;2.328;2024-03-22T09:35:13;15.45;;;7.07;;
70549;SDS011;58101;48.658;2.328;2024-03-22T09:37:42;14.15;;;6.20;;
70549;SDS011;58101;48.658;2.328;2024-03-22T09:40:09;12.77;;;5.65;;
70549;SDS011;58101;48.658;2.328;2024-03-22T09:42:37;10.00;;;5.32;;
70549;SDS011;58101;48.658;2.328;2024-03-22T09:45:07;10.52;;;5.25;;
70549;SDS011;58101;48.658;2.328;2024-03-22T09:47:34;10.15;;;4.80;;
70549;SDS011;58101;48.658;2.328;2024-03-22T09:50:02;11.77;;;4.90;;
70549;SDS011;58101;48.658;2.328;2024-03-22T09:52:31;9.93;;;4.50;;
70549;SDS011;58101;48.658;2.328;2024-03-22T09:54:58;10.25;;;5.10;;
70549;SDS011;58101;48.658;2.328;2024-03-22T09:57:24;10.35;;;4.78;;
70549;SDS011;58101;48.658;2.328;2024-03-22T09:59:50;12.80;;;4.88;;
70549;SDS011;58101;48.658;2.328;2024-03-22T10:02:16;10.10;;;4.88;;
70549;SDS011;58101;48.658;2.328;2024-03-22T10:04:43;9.50;;;4.97;;
70549;SDS011;58101;48.658;2.328;2024-03-22T10:07:08;11.63;;;4.80;;
70549;SDS011;58101;48.658;2.328;2024-03-22T10:09:35;9.60;;;4.78;;
70549;SDS011;58101;48.658;2.328;2024-03-22T10:12:01;10.65;;;4.70;;
70549;SDS011;58101;48.658;2.328;2024-03-22T10:14:28;10.00;;;4.38;;
70549;SDS011;58101;48.658;2.328;2024-03-22T10:16:54;11.75;;;4.53;;
70549;SDS011;58101;48.658;2.328;2024-03-22T10:19:20;11.07;;;5.32;;
70549;SDS011;58101;48.658;2.328;2024-03-22T10:22:08;9.90;;;4.45;;
70549;SDS011;58101;48.658;2.328;2024-03-22T10:24:32;9.65;;;4.75;;
70549;SDS011;58101;48.658;2.328;2024-03-22T10:26:58;11.10;;;4.97;;
70549;SDS011;58101;48.658;2.328;2024-03-22T10:29:24;9.95;;;4.88;;
70549;SDS011;58101;48.658;2.328;2024-03-22T10:31:51;11.60;;;5.15;;
70549;SDS011;58101;48.658;2.328;2024-03-22T10:34:17;11.98;;;5.15;;
70549;SDS011;58101;48.658;2.328;2024-03-22T10:36:45;10.68;;;4.53;;
70549;SDS011;58101;48.658;2.328;2024-03-22T10:39:12;10.27;;;4.72;;
70549;SDS011;58101;48.658;2.328;2024-03-22T10:41:44;8.88;;;4.57;;
70549;SDS011;58101;48.658;2.328;2024-03-22T10:44:10;10.98;;;4.90;;
70549;SDS011;58101;48.658;2.328;2024-03-22T10:46:37;10.95;;;4.50;;
70549;SDS011;58101;48.658;2.328;2024-03-22T10:49:03;10.30;;;4.88;;
70549;SDS011;58101;48.658;2.328;2024-03-22T10:51:31;10.38;;;4.75;;
70549;SDS011;58101;48.658;2.328;2024-03-22T10:53:59;10.23;;;4.80;;
70549;SDS011;58101;48.658;2.328;2024-03-22T10:56:28;9.10;;;4.45;;
70549;SDS011;58101;48.658;2.328;2024-03-22T10:58:55;10.00;;;5.00;;
70549;SDS011;58101;48.658;2.328;2024-03-22T11:01:27;10.40;;;4.80;;
70549;SDS011;58101;48.658;2.328;2024-03-22T11:04:08;9.30;;;4.93;;
70549;SDS011;58101;48.658;2.328;2024-03-22T11:06:36;9.95;;;4.20;;
70549;SDS011;58101;48.658;2.328;2024-03-22T11:09:02;8.35;;;3.83;;
70549;SDS011;58101;48.658;2.328;2024-03-22T11:11:32;8.40;;;3.65;;
70549;SDS011;58101;48.658;2.328;2024-03-22T11:14:02;8.88;;;4.30;;
70549;SDS011;58101;48.658;2.328;2024-03-22T11:16:28;9.52;;;4.30;;
70549;SDS011;58101;48.658;2.328;2024-03-22T11:18:55;11.38;;;3.95;;
70549;SDS011;58101;48.658;2.328;2024-03-22T11:21:23;10.40;;;4.50;;
70549;SDS011;58101;48.658;2.328;2024-03-22T11:23:49;10.68;;;4.10;;
70549;SDS011;58101;48.658;2.328;2024-03-22T11:26:14;10.15;;;4.38;;
70549;SDS011;58101;48.658;2.328;2024-03-22T11:28:41;10.05;;;4.18;;
70549;SDS011;58101;48.658;2.328;2024-03-22T11:31:07;10.63;;;4.72;;
70549;SDS011;58101;48.658;2.328;2024-03-22T11:33:33;11.57;;;6.35;;
70549;SDS011;58101;48.658;2.328;2024-03-22T11:35:59;11.65;;;5.75;;
70549;SDS011;58101;48.658;2.328;2024-03-22T11:38:26;10.43;;;6.32;;
70549;SDS011;58101;48.658;2.328;2024-03-22T11:40:59;11.82;;;6.28;;
70549;SDS011;58101;48.658;2.328;2024-03-22T11:43:27;10.82;;;5.93;;
70549;SDS011;58101;48.658;2.328;2024-03-22T11:45:54;14.00;;;6.20;;
70549;SDS011;58101;48.658;2.328;2024-03-22T11:48:23;10.75;;;6.15;;
70549;SDS011;58101;48.658;2.328;2024-03-22T11:50:49;11.63;;;6.32;;
70549;SDS011;58101;48.658;2.328;2024-03-22T11:53:18;12.02;;;5.80;;
70549;SDS011;58101;48.658;2.328;2024-03-22T11:55:44;11.13;;;5.50;;
70549;SDS011;58101;48.658;2.328;2024-03-22T11:58:10;11.48;;;5.93;;
70549;SDS011;58101;48.658;2.328;2024-03-22T12:00:36;11.48;;;6.20;;
70549;SDS011;58101;48.658;2.328;2024-03-22T12:03:03;9.98;;;6.13;;
70549;SDS011;58101;48.658;2.328;2024-03-22T12:05:31;11.43;;;5.95;;
70549;SDS011;58101;48.658;2.328;2024-03-22T12:07:57;10.73;;;5.80;;
70549;SDS011;58101;48.658;2.328;2024-03-22T12:10:22;10.80;;;6.15;;
70549;SDS011;58101;48.658;2.328;2024-03-22T12:12:48;10.80;;;6.10;;
70549;SDS011;58101;48.658;2.328;2024-03-22T12:15:13;11.15;;;5.28;;
70549;SDS011;58101;48.658;2.328;2024-03-22T12:17:39;11.73;;;5.60;;
70549;SDS011;58101;48.658;2.328;2024-03-22T12:20:08;10.45;;;6.00;;
70549;SDS011;58101;48.658;2.328;2024-03-22T12:22:34;10.90;;;6.03;;
70549;SDS011;58101;48.658;2.328;2024-03-22T12:25:00;11.18;;;5.82;;
70549;SDS011;58101;48.658;2.328;2024-03-22T12:27:26;13.20;;;6.30;;
70549;SDS011;58101;48.658;2.328;2024-03-22T12:29:51;13.00;;;6.38;;
70549;SDS011;58101;48.658;2.328;2024-03-22T12:32:17;10.77;;;5.78;;
70549;SDS011;58101;48.658;2.328;2024-03-22T12:34:43;11.68;;;5.97;;
70549;SDS011;58101;48.658;2.328;2024-03-22T12:37:09;11.18;;;5.20;;
70549;SDS011;58101;48.658;2.328;2024-03-22T12:39:34;11.88;;;5.88;;
70549;SDS011;58101;48.658;2.328;2024-03-22T12:42:00;11.45;;;5.75;;
70549;SDS011;58101;48.658;2.328;2024-03-22T12:44:26;11.45;;;6.00;;
70549;SDS011;58101;48.658;2.328;2024-03-22T12:46:52;13.40;;;5.35;;
70549;SDS011;58101;48.658;2.328;2024-03-22T12:49:19;11.75;;;5.55;;
70549;SDS011;58101;48.658;2.328;2024-03-22T12:51:45;10.23;;;5.32;;
70549;SDS011;58101;48.658;2.328;2024-03-22T12:54:10;12.20;;;5.25;;
70549;SDS011;58101;48.658;2.328;2024-03-22T12:56:37;11.85;;;5.57;;
70549;SDS011;58101;48.658;2.328;2024-03-22T12:59:04;12.02;;;5.50;;
70549;SDS011;58101;48.658;2.328;2024-03-22T13:01:30;10.05;;;4.90;;
70549;SDS011;58101;48.658;2.328;2024-03-22T13:03:55;9.70;;;4.63;;
70549;SDS011;58101;48.658;2.328;2024-03-22T13:06:22;8.30;;;4.10;;
70549;SDS011;58101;48.658;2.328;2024-03-22T13:08:47;10.13;;;4.20;;
70549;SDS011;58101;48.658;2.328;2024-03-22T13:11:13;11.15;;;3.53;;
70549;SDS011;58101;48.658;2.328;2024-03-22T13:13:39;9.27;;;3.63;;
70549;SDS011;58101;48.658;2.328;2024-03-22T13:16:05;7.72;;;3.42;;
70549;SDS011;58101;48.658;2.328;2024-03-22T13:18:31;8.45;;;2.60;;
70549;SDS011;58101;48.658;2.328;2024-03-22T13:20:57;7.55;;;2.50;;
70549;SDS011;58101;48.658;2.328;2024-03-22T13:25:48;7.28;;;2.70;;
70549;SDS011;58101;48.658;2.328;2024-03-22T13:30:45;6.45;;;2.50;;
70549;SDS011;58101;48.658;2.328;2024-03-22T13:35:36;7.07;;;2.03;;
70549;SDS011;58101;48.658;2.328;2024-03-22T13:38:01;7.60;;;1.90;;
70549;SDS011;58101;48.658;2.328;2024-03-22T13:40:27;6.28;;;1.67;;
70549;SDS011;58101;48.658;2.328;2024-03-22T13:45:18;5.38;;;1.70;;
70549;SDS011;58101;48.658;2.328;2024-03-22T13:47:45;8.30;;;2.10;;
70549;SDS011;58101;48.658;2.328;2024-03-22T13:50:10;6.65;;;2.42;;
70549;SDS011;58101;48.658;2.328;2024-03-22T13:52:37;7.45;;;2.50;;
70549;SDS011;58101;48.658;2.328;2024-03-22T13:55:03;7.20;;;2.70;;
70549;SDS011;58101;48.658;2.328;2024-03-22T13:57:29;10.75;;;3.60;;
70549;SDS011;58101;48.658;2.328;2024-03-22T13:59:58;7.13;;;2.92;;
70549;SDS011;58101;48.658;2.328;2024-03-22T14:02:24;8.43;;;2.70;;
70549;SDS011;58101;48.658;2.328;2024-03-22T14:04:49;9.73;;;2.35;;
70549;SDS011;58101;48.658;2.328;2024-03-22T14:07:15;6.70;;;2.25;;
70549;SDS011;58101;48.658;2.328;2024-03-22T14:09:41;7.80;;;2.55;;
70549;SDS011;58101;48.658;2.328;2024-03-22T14:12:08;7.70;;;2.35;;
70549;SDS011;58101;48.658;2.328;2024-03-22T14:14:33;7.80;;;1.73;;
70549;SDS011;58101;48.658;2.328;2024-03-22T14:16:59;7.05;;;2.00;;
70549;SDS011;58101;48.658;2.328;2024-03-22T14:19:25;9.13;;;2.03;;
70549;SDS011;58101;48.658;2.328;2024-03-22T14:21:53;7.72;;;2.15;;
70549;SDS011;58101;48.658;2.328;2024-03-22T14:24:21;7.32;;;1.85;;
70549;SDS011;58101;48.658;2.328;2024-03-22T14:26:47;5.75;;;1.98;;
70549;SDS011;58101;48.658;2.328;2024-03-22T14:29:13;7.78;;;2.33;;
70549;SDS011;58101;48.658;2.328;2024-03-22T14:31:38;8.90;;;2.65;;
70549;SDS011;58101;48.658;2.328;2024-03-22T14:34:05;6.55;;;1.70;;
70549;SDS011;58101;48.658;2.328;2024-03-22T14:36:31;7.25;;;2.00;;
70549;SDS011;58101;48.658;2.328;2024-03-22T14:38:58;6.50;;;2.10;;
70549;SDS011;58101;48.658;2.328;2024-03-22T14:41:24;7.50;;;1.70;;